sensor_id;sensor_type;location;lat;lon;timestamp;pressure;altitude;pressure_sealevel;temperature;humidity
12624;BME280;6377;42.836;23.998;2023-08-20T00:01:31;95969.81;;;21.04;93.71
12624;BME280;6377;42.836;23.998;2023-08-20T00:03:59;95964.78;;;21.19;91.87
12624;BME280;6377;42.836;23.998;2023-08-20T00:06:26;95960.09;;;21.27;90.96
12624;BME280;6377;42.836;23.998;2023-08-20T00:08:55;95954.94;;;21.37;89.99
12624;BME280;6377;42.836;23.998;2023-08-20T00:11:23;95950.41;;;21.54;87.82
12624;BME280;6377;42.836;23.998;2023-08-20T00:13:50;95953.28;;;21.64;86.74
12624;BME280;6377;42.836;23.998;2023-08-20T00:16:18;95955.50;;;21.67;86.56
12624;BME280;6377;42.836;23.998;2023-08-20T00:18:46;95951.75;;;21.68;86.32
12624;BME280;6377;42.836;23.998;2023-08-20T00:21:14;95944.69;;;21.50;86.43
12624;BME280;6377;42.836;23.998;2023-08-20T00:23:42;95955.84;;;21.70;85.97
12624;BME280;6377;42.836;23.998;2023-08-20T00:26:12;95958.88;;;21.74;85.32
12624;BME280;6377;42.836;23.998;2023-08-20T00:28:39;95956.81;;;21.64;85.80
12624;BME280;6377;42.836;23.998;2023-08-20T00:31:06;95950.38;;;21.65;85.87
12624;BME280;6377;42.836;23.998;2023-08-20T00:33:34;95956.31;;;21.67;85.74
12624;BME280;6377;42.836;23.998;2023-08-20T00:36:01;95959.91;;;21.73;85.31
12624;BME280;6377;42.836;23.998;2023-08-20T00:38:29;95958.63;;;21.75;85.13
12624;BME280;6377;42.836;23.998;2023-08-20T00:40:56;95962.22;;;21.81;84.40
12624;BME280;6377;42.836;23.998;2023-08-20T00:43:25;95960.22;;;21.60;85.96
12624;BME280;6377;42.836;23.998;2023-08-20T00:45:52;95958.53;;;21.42;86.99
12624;BME280;6377;42.836;23.998;2023-08-20T00:48:20;95957.41;;;21.27;89.13
12624;BME280;6377;42.836;23.998;2023-08-20T00:50:47;95954.09;;;21.36;88.32
12624;BME280;6377;42.836;23.998;2023-08-20T00:53:15;95946.22;;;21.46;87.45
12624;BME280;6377;42.836;23.998;2023-08-20T00:55:42;95941.31;;;21.43;87.06
12624;BME280;6377;42.836;23.998;2023-08-20T00:58:10;95936.19;;;21.42;86.53
12624;BME280;6377;42.836;23.998;2023-08-20T01:00:39;95930.44;;;21.10;88.64
12624;BME280;6377;42.836;23.998;2023-08-20T01:03:07;95935.53;;;21.23;88.86
12624;BME280;6377;42.836;23.998;2023-08-20T01:05:40;95945.69;;;21.33;88.11
12624;BME280;6377;42.836;23.998;2023-08-20T01:08:22;95949.78;;;21.35;87.57
12624;BME280;6377;42.836;23.998;2023-08-20T01:10:58;95938.25;;;21.11;88.18
12624;BME280;6377;42.836;23.998;2023-08-20T01:13:29;95939.88;;;21.01;90.44
12624;BME280;6377;42.836;23.998;2023-08-20T01:15:57;95939.00;;;20.72;91.81
12624;BME280;6377;42.836;23.998;2023-08-20T01:18:25;95948.56;;;20.68;93.41
12624;BME280;6377;42.836;23.998;2023-08-20T01:20:56;95953.22;;;20.73;93.43
12624;BME280;6377;42.836;23.998;2023-08-20T01:24:05;95944.22;;;20.79;92.60
12624;BME280;6377;42.836;23.998;2023-08-20T01:27:00;95937.09;;;20.84;92.15
12624;BME280;6377;42.836;23.998;2023-08-20T01:29:32;95948.91;;;20.95;90.81
12624;BME280;6377;42.836;23.998;2023-08-20T01:32:00;95943.16;;;21.03;89.80
12624;BME280;6377;42.836;23.998;2023-08-20T01:34:28;95945.16;;;21.07;88.89
12624;BME280;6377;42.836;23.998;2023-08-20T01:36:56;95955.78;;;21.14;88.46
12624;BME280;6377;42.836;23.998;2023-08-20T01:39:23;95952.41;;;20.95;88.52
12624;BME280;6377;42.836;23.998;2023-08-20T01:41:50;95952.41;;;20.95;89.50
12624;BME280;6377;42.836;23.998;2023-08-20T01:44:17;95943.16;;;20.91;89.33
12624;BME280;6377;42.836;23.998;2023-08-20T01:46:46;95944.22;;;20.90;89.81
12624;BME280;6377;42.836;23.998;2023-08-20T01:49:13;95935.34;;;20.90;90.00
12624;BME280;6377;42.836;23.998;2023-08-20T01:51:41;95933.59;;;20.95;89.42
12624;BME280;6377;42.836;23.998;2023-08-20T01:54:08;95931.34;;;21.04;88.56
12624;BME280;6377;42.836;23.998;2023-08-20T01:56:35;95927.25;;;21.01;88.43
12624;BME280;6377;42.836;23.998;2023-08-20T01:59:03;95916.16;;;20.98;88.12
12624;BME280;6377;42.836;23.998;2023-08-20T02:01:30;95925.63;;;21.12;87.17
12624;BME280;6377;42.836;23.998;2023-08-20T02:03:59;95928.41;;;21.17;86.47
12624;BME280;6377;42.836;23.998;2023-08-20T02:06:26;95926.06;;;21.20;85.70
12624;BME280;6377;42.836;23.998;2023-08-20T02:08:53;95915.56;;;21.07;86.54
12624;BME280;6377;42.836;23.998;2023-08-20T02:11:21;95917.66;;;21.05;87.43
12624;BME280;6377;42.836;23.998;2023-08-20T02:13:48;95913.91;;;21.06;86.97
12624;BME280;6377;42.836;23.998;2023-08-20T02:16:15;95906.31;;;21.03;87.45
12624;BME280;6377;42.836;23.998;2023-08-20T02:18:43;95911.00;;;21.08;87.05
12624;BME280;6377;42.836;23.998;2023-08-20T02:21:12;95906.88;;;21.05;86.73
12624;BME280;6377;42.836;23.998;2023-08-20T02:23:39;95916.63;;;20.95;88.04
12624;BME280;6377;42.836;23.998;2023-08-20T02:26:06;95922.34;;;20.98;87.68
12624;BME280;6377;42.836;23.998;2023-08-20T02:28:34;95892.56;;;20.77;87.84
12624;BME280;6377;42.836;23.998;2023-08-20T02:31:04;95915.34;;;20.97;87.66
12624;BME280;6377;42.836;23.998;2023-08-20T02:33:31;95920.34;;;20.94;87.43
12624;BME280;6377;42.836;23.998;2023-08-20T02:36:01;95914.16;;;20.93;87.53
12624;BME280;6377;42.836;23.998;2023-08-20T02:38:30;95918.16;;;20.79;85.81
12624;BME280;6377;42.836;23.998;2023-08-20T02:40:58;95918.06;;;20.39;90.37
12624;BME280;6377;42.836;23.998;2023-08-20T02:43:25;95920.66;;;20.34;91.92
12624;BME280;6377;42.836;23.998;2023-08-20T02:45:52;95920.38;;;20.24;92.84
12624;BME280;6377;42.836;23.998;2023-08-20T02:48:19;95922.16;;;20.42;91.86
12624;BME280;6377;42.836;23.998;2023-08-20T02:50:46;95929.88;;;20.50;91.27
12624;BME280;6377;42.836;23.998;2023-08-20T02:53:16;95925.22;;;20.45;90.28
12624;BME280;6377;42.836;23.998;2023-08-20T02:55:45;95931.25;;;20.41;91.90
12624;BME280;6377;42.836;23.998;2023-08-20T02:58:12;95930.69;;;20.39;91.08
12624;BME280;6377;42.836;23.998;2023-08-20T03:00:41;95907.84;;;20.06;91.19
12624;BME280;6377;42.836;23.998;2023-08-20T03:03:08;95933.91;;;20.18;93.45
12624;BME280;6377;42.836;23.998;2023-08-20T03:05:36;95937.44;;;20.30;92.38
12624;BME280;6377;42.836;23.998;2023-08-20T03:08:03;95939.94;;;20.43;91.53
12624;BME280;6377;42.836;23.998;2023-08-20T03:10:31;95914.56;;;20.27;89.64
12624;BME280;6377;42.836;23.998;2023-08-20T03:13:00;95920.66;;;20.46;88.63
12624;BME280;6377;42.836;23.998;2023-08-20T03:15:27;95938.53;;;20.75;87.31
12624;BME280;6377;42.836;23.998;2023-08-20T03:18:05;95903.56;;;20.52;86.78
12624;BME280;6377;42.836;23.998;2023-08-20T03:20:32;95946.22;;;20.83;86.32
12624;BME280;6377;42.836;23.998;2023-08-20T03:23:00;95911.03;;;20.73;85.19
12624;BME280;6377;42.836;23.998;2023-08-20T03:25:30;95926.47;;;20.78;84.97
12624;BME280;6377;42.836;23.998;2023-08-20T03:27:57;95923.09;;;20.71;84.70
12624;BME280;6377;42.836;23.998;2023-08-20T03:30:26;95900.66;;;20.42;85.49
12624;BME280;6377;42.836;23.998;2023-08-20T03:32:53;95897.16;;;20.41;86.02
12624;BME280;6377;42.836;23.998;2023-08-20T03:35:20;95949.28;;;20.63;85.80
12624;BME280;6377;42.836;23.998;2023-08-20T03:37:48;95952.28;;;20.44;87.95
12624;BME280;6377;42.836;23.998;2023-08-20T03:40:15;95944.53;;;20.24;88.67
12624;BME280;6377;42.836;23.998;2023-08-20T03:42:44;95935.72;;;19.94;91.80
12624;BME280;6377;42.836;23.998;2023-08-20T03:45:20;95917.56;;;19.66;93.63
12624;BME280;6377;42.836;23.998;2023-08-20T03:47:48;95945.09;;;20.03;93.46
12624;BME280;6377;42.836;23.998;2023-08-20T03:50:16;95833.88;;;19.46;91.59
12624;BME280;6377;42.836;23.998;2023-08-20T03:52:43;95883.66;;;19.83;90.79
12624;BME280;6377;42.836;23.998;2023-08-20T03:55:10;95904.78;;;19.91;90.39
12624;BME280;6377;42.836;23.998;2023-08-20T03:57:37;95958.50;;;20.44;88.32
12624;BME280;6377;42.836;23.998;2023-08-20T04:00:05;95955.22;;;20.54;87.34
12624;BME280;6377;42.836;23.998;2023-08-20T04:02:35;95950.91;;;20.64;85.92
12624;BME280;6377;42.836;23.998;2023-08-20T04:05:04;95954.97;;;20.67;85.54
12624;BME280;6377;42.836;23.998;2023-08-20T04:07:31;95950.44;;;20.67;85.43
12624;BME280;6377;42.836;23.998;2023-08-20T04:09:58;95958.75;;;20.43;87.22
12624;BME280;6377;42.836;23.998;2023-08-20T04:12:26;95953.88;;;20.22;88.97
12624;BME280;6377;42.836;23.998;2023-08-20T04:14:53;95946.28;;;20.07;90.68
12624;BME280;6377;42.836;23.998;2023-08-20T04:17:20;95949.66;;;20.14;90.39
12624;BME280;6377;42.836;23.998;2023-08-20T04:19:47;95954.16;;;20.32;88.85
12624;BME280;6377;42.836;23.998;2023-08-20T04:22:16;95949.38;;;20.45;87.71
12624;BME280;6377;42.836;23.998;2023-08-20T04:24:43;95942.00;;;20.41;86.82
12624;BME280;6377;42.836;23.998;2023-08-20T04:27:10;95949.16;;;20.58;86.38
12624;BME280;6377;42.836;23.998;2023-08-20T04:29:37;95936.06;;;20.50;86.13
12624;BME280;6377;42.836;23.998;2023-08-20T04:32:05;95951.38;;;20.61;85.85
12624;BME280;6377;42.836;23.998;2023-08-20T04:34:32;95937.00;;;20.56;85.02
12624;BME280;6377;42.836;23.998;2023-08-20T04:36:59;95954.88;;;20.74;84.82
12624;BME280;6377;42.836;23.998;2023-08-20T04:39:28;95941.53;;;20.67;84.37
12624;BME280;6377;42.836;23.998;2023-08-20T04:41:58;95909.53;;;20.54;83.84
12624;BME280;6377;42.836;23.998;2023-08-20T04:44:25;95946.81;;;20.74;83.81
12624;BME280;6377;42.836;23.998;2023-08-20T04:46:53;95954.97;;;20.90;83.32
12624;BME280;6377;42.836;23.998;2023-08-20T04:49:20;95952.88;;;20.92;83.36
12624;BME280;6377;42.836;23.998;2023-08-20T04:51:47;95954.75;;;20.80;84.32
12624;BME280;6377;42.836;23.998;2023-08-20T04:54:14;95953.94;;;20.80;84.62
12624;BME280;6377;42.836;23.998;2023-08-20T04:56:43;95958.59;;;20.84;84.57
12624;BME280;6377;42.836;23.998;2023-08-20T04:59:10;95951.47;;;20.90;83.80
12624;BME280;6377;42.836;23.998;2023-08-20T05:01:38;95951.00;;;20.93;83.81
12624;BME280;6377;42.836;23.998;2023-08-20T05:04:05;95931.84;;;20.89;83.37
12624;BME280;6377;42.836;23.998;2023-08-20T05:06:32;95847.97;;;20.41;83.13
12624;BME280;6377;42.836;23.998;2023-08-20T05:09:00;95937.91;;;21.08;82.62
12624;BME280;6377;42.836;23.998;2023-08-20T05:11:27;95949.34;;;21.03;82.40
12624;BME280;6377;42.836;23.998;2023-08-20T05:13:58;95938.13;;;21.06;83.35
12624;BME280;6377;42.836;23.998;2023-08-20T05:16:25;95948.06;;;21.17;82.92
12624;BME280;6377;42.836;23.998;2023-08-20T05:18:52;95951.66;;;21.23;82.81
12624;BME280;6377;42.836;23.998;2023-08-20T05:21:19;95954.00;;;21.19;83.61
12624;BME280;6377;42.836;23.998;2023-08-20T05:23:47;95934.25;;;21.02;84.44
12624;BME280;6377;42.836;23.998;2023-08-20T05:26:14;95900.75;;;20.82;84.84
12624;BME280;6377;42.836;23.998;2023-08-20T05:28:41;95955.31;;;21.05;85.56
12624;BME280;6377;42.836;23.998;2023-08-20T05:31:10;95965.41;;;21.10;85.08
12624;BME280;6377;42.836;23.998;2023-08-20T05:33:37;95955.56;;;21.15;89.01
12624;BME280;6377;42.836;23.998;2023-08-20T05:36:05;95936.13;;;20.90;87.83
12624;BME280;6377;42.836;23.998;2023-08-20T05:38:32;95960.69;;;21.05;88.46
12624;BME280;6377;42.836;23.998;2023-08-20T05:40:59;95950.09;;;21.10;87.01
12624;BME280;6377;42.836;23.998;2023-08-20T05:43:26;95961.63;;;20.99;90.46
12624;BME280;6377;42.836;23.998;2023-08-20T05:45:54;95957.88;;;21.00;88.08
12624;BME280;6377;42.836;23.998;2023-08-20T05:48:23;95906.59;;;20.79;87.24
12624;BME280;6377;42.836;23.998;2023-08-20T05:50:50;95969.56;;;21.17;88.14
12624;BME280;6377;42.836;23.998;2023-08-20T05:53:17;95960.00;;;21.21;87.69
12624;BME280;6377;42.836;23.998;2023-08-20T05:55:45;95952.13;;;21.20;90.71
12624;BME280;6377;42.836;23.998;2023-08-20T05:58:12;95961.84;;;21.21;87.60
12624;BME280;6377;42.836;23.998;2023-08-20T06:00:39;95966.59;;;21.42;87.74
12624;BME280;6377;42.836;23.998;2023-08-20T06:03:07;95961.44;;;21.41;90.90
12624;BME280;6377;42.836;23.998;2023-08-20T06:05:35;95960.72;;;21.57;88.24
12624;BME280;6377;42.836;23.998;2023-08-20T06:08:03;95983.25;;;21.67;85.65
12624;BME280;6377;42.836;23.998;2023-08-20T06:10:31;95959.59;;;21.69;90.02
12624;BME280;6377;42.836;23.998;2023-08-20T06:12:58;95919.06;;;21.48;88.62
12624;BME280;6377;42.836;23.998;2023-08-20T06:15:25;95933.47;;;21.70;89.35
12624;BME280;6377;42.836;23.998;2023-08-20T06:17:57;95962.22;;;21.93;90.37
12624;BME280;6377;42.836;23.998;2023-08-20T06:20:24;95956.25;;;21.91;90.49
12624;BME280;6377;42.836;23.998;2023-08-20T06:22:53;95960.31;;;21.93;90.41
12624;BME280;6377;42.836;23.998;2023-08-20T06:25:20;95939.84;;;21.92;94.64
12624;BME280;6377;42.836;23.998;2023-08-20T06:27:47;95960.84;;;22.07;93.32
12624;BME280;6377;42.836;23.998;2023-08-20T06:30:14;95953.34;;;22.09;93.03
12624;BME280;6377;42.836;23.998;2023-08-20T06:32:43;95949.00;;;22.08;91.50
12624;BME280;6377;42.836;23.998;2023-08-20T06:35:13;95964.03;;;22.20;93.30
12624;BME280;6377;42.836;23.998;2023-08-20T06:37:43;95952.28;;;22.26;94.38
12624;BME280;6377;42.836;23.998;2023-08-20T06:40:15;95947.47;;;22.28;92.24
12624;BME280;6377;42.836;23.998;2023-08-20T06:42:42;95960.31;;;22.38;92.21
12624;BME280;6377;42.836;23.998;2023-08-20T06:45:10;95963.47;;;22.35;92.42
12624;BME280;6377;42.836;23.998;2023-08-20T06:47:37;95939.91;;;22.42;92.19
12624;BME280;6377;42.836;23.998;2023-08-20T06:50:05;95946.19;;;22.48;89.77
12624;BME280;6377;42.836;23.998;2023-08-20T06:52:33;95955.66;;;22.67;87.39
12624;BME280;6377;42.836;23.998;2023-08-20T06:55:00;95938.44;;;22.68;83.35
12624;BME280;6377;42.836;23.998;2023-08-20T06:57:29;95948.34;;;22.84;82.93
12624;BME280;6377;42.836;23.998;2023-08-20T06:59:57;95962.94;;;23.05;85.28
12624;BME280;6377;42.836;23.998;2023-08-20T07:02:24;95928.97;;;23.04;82.63
12624;BME280;6377;42.836;23.998;2023-08-20T07:04:51;95959.13;;;23.39;81.58
12624;BME280;6377;42.836;23.998;2023-08-20T07:07:19;95953.00;;;23.49;79.48
12624;BME280;6377;42.836;23.998;2023-08-20T07:09:46;95956.97;;;23.63;80.00
12624;BME280;6377;42.836;23.998;2023-08-20T07:12:13;95952.75;;;23.72;76.05
12624;BME280;6377;42.836;23.998;2023-08-20T07:14:42;95957.78;;;23.90;74.84
12624;BME280;6377;42.836;23.998;2023-08-20T07:17:09;95956.16;;;24.11;72.42
12624;BME280;6377;42.836;23.998;2023-08-20T07:19:36;95934.00;;;24.14;75.02
12624;BME280;6377;42.836;23.998;2023-08-20T07:22:04;95954.84;;;24.45;74.68
12624;BME280;6377;42.836;23.998;2023-08-20T07:24:31;95949.53;;;24.60;72.58
12624;BME280;6377;42.836;23.998;2023-08-20T07:27:00;95956.22;;;24.84;69.04
12624;BME280;6377;42.836;23.998;2023-08-20T07:29:30;95953.66;;;25.04;70.54
12624;BME280;6377;42.836;23.998;2023-08-20T07:31:58;95951.84;;;25.15;69.65
12624;BME280;6377;42.836;23.998;2023-08-20T07:34:28;95952.47;;;25.37;69.22
12624;BME280;6377;42.836;23.998;2023-08-20T07:36:56;95952.47;;;25.42;68.74
12624;BME280;6377;42.836;23.998;2023-08-20T07:39:23;95957.19;;;25.57;66.75
12624;BME280;6377;42.836;23.998;2023-08-20T07:41:50;95961.31;;;25.75;67.11
12624;BME280;6377;42.836;23.998;2023-08-20T07:44:18;95955.38;;;25.88;64.88
12624;BME280;6377;42.836;23.998;2023-08-20T07:46:45;95960.03;;;26.02;65.19
12624;BME280;6377;42.836;23.998;2023-08-20T07:49:14;95960.84;;;26.13;64.26
12624;BME280;6377;42.836;23.998;2023-08-20T07:51:41;95949.25;;;26.23;61.79
12624;BME280;6377;42.836;23.998;2023-08-20T07:54:08;95953.31;;;26.25;59.54
12624;BME280;6377;42.836;23.998;2023-08-20T07:56:36;95952.78;;;26.43;58.12
12624;BME280;6377;42.836;23.998;2023-08-20T07:59:03;95944.13;;;26.41;56.82
12624;BME280;6377;42.836;23.998;2023-08-20T08:01:30;95952.22;;;26.66;57.05
12624;BME280;6377;42.836;23.998;2023-08-20T08:03:58;95956.88;;;26.71;57.52
12624;BME280;6377;42.836;23.998;2023-08-20T08:06:26;95951.16;;;26.88;56.79
12624;BME280;6377;42.836;23.998;2023-08-20T08:08:54;95890.38;;;26.58;55.50
12624;BME280;6377;42.836;23.998;2023-08-20T08:11:22;95954.94;;;27.12;54.44
12624;BME280;6377;42.836;23.998;2023-08-20T08:13:49;95955.41;;;27.29;53.74
12624;BME280;6377;42.836;23.998;2023-08-20T08:16:17;95910.69;;;27.06;52.14
12624;BME280;6377;42.836;23.998;2023-08-20T08:18:47;95942.06;;;27.43;51.56
12624;BME280;6377;42.836;23.998;2023-08-20T08:21:14;95928.75;;;27.41;53.44
12624;BME280;6377;42.836;23.998;2023-08-20T08:23:43;95947.47;;;27.58;52.82
12624;BME280;6377;42.836;23.998;2023-08-20T08:26:10;95953.66;;;27.68;53.30
12624;BME280;6377;42.836;23.998;2023-08-20T08:28:38;95944.38;;;27.74;51.97
12624;BME280;6377;42.836;23.998;2023-08-20T08:31:06;95950.63;;;27.75;51.94
12624;BME280;6377;42.836;23.998;2023-08-20T08:33:33;95944.94;;;27.71;50.89
12624;BME280;6377;42.836;23.998;2023-08-20T08:36:00;95948.97;;;27.84;51.74
12624;BME280;6377;42.836;23.998;2023-08-20T08:38:28;95948.69;;;27.80;51.05
12624;BME280;6377;42.836;23.998;2023-08-20T08:40:57;95956.28;;;27.83;51.63
12624;BME280;6377;42.836;23.998;2023-08-20T08:43:25;95950.06;;;27.78;51.99
12624;BME280;6377;42.836;23.998;2023-08-20T08:45:56;95951.91;;;27.93;52.14
12624;BME280;6377;42.836;23.998;2023-08-20T08:48:25;95954.03;;;28.01;50.25
12624;BME280;6377;42.836;23.998;2023-08-20T08:50:52;95933.88;;;28.07;50.34
12624;BME280;6377;42.836;23.998;2023-08-20T08:53:20;95951.97;;;28.31;48.69
12624;BME280;6377;42.836;23.998;2023-08-20T08:55:48;95940.19;;;28.41;48.06
12624;BME280;6377;42.836;23.998;2023-08-20T08:58:17;95940.16;;;28.46;48.99
12624;BME280;6377;42.836;23.998;2023-08-20T09:00:44;95944.34;;;28.62;48.65
12624;BME280;6377;42.836;23.998;2023-08-20T09:03:11;95943.25;;;28.68;47.49
12624;BME280;6377;42.836;23.998;2023-08-20T09:05:48;95938.00;;;28.77;46.08
12624;BME280;6377;42.836;23.998;2023-08-20T09:08:22;95912.25;;;28.59;46.69
12624;BME280;6377;42.836;23.998;2023-08-20T09:10:51;95948.41;;;28.99;46.29
12624;BME280;6377;42.836;23.998;2023-08-20T09:13:22;95952.91;;;29.13;46.76
12624;BME280;6377;42.836;23.998;2023-08-20T09:15:51;95938.19;;;29.14;46.18
12624;BME280;6377;42.836;23.998;2023-08-20T09:18:19;95940.47;;;29.31;45.96
12624;BME280;6377;42.836;23.998;2023-08-20T09:20:48;95942.69;;;29.53;45.55
12624;BME280;6377;42.836;23.998;2023-08-20T09:23:15;95943.44;;;29.58;44.92
12624;BME280;6377;42.836;23.998;2023-08-20T09:25:42;95944.53;;;29.81;43.96
12624;BME280;6377;42.836;23.998;2023-08-20T09:28:11;95920.03;;;29.76;43.60
12624;BME280;6377;42.836;23.998;2023-08-20T09:30:39;95933.25;;;29.87;41.64
12624;BME280;6377;42.836;23.998;2023-08-20T09:33:09;95918.81;;;29.63;41.49
12624;BME280;6377;42.836;23.998;2023-08-20T09:35:37;95942.22;;;29.45;42.13
12624;BME280;6377;42.836;23.998;2023-08-20T09:38:04;95932.19;;;29.65;42.49
12624;BME280;6377;42.836;23.998;2023-08-20T09:40:32;95914.09;;;29.92;40.82
12624;BME280;6377;42.836;23.998;2023-08-20T09:43:00;95939.16;;;30.13;40.90
12624;BME280;6377;42.836;23.998;2023-08-20T09:45:29;95880.84;;;30.09;41.54
12624;BME280;6377;42.836;23.998;2023-08-20T09:47:58;95917.25;;;30.56;40.52
12624;BME280;6377;42.836;23.998;2023-08-20T09:50:27;95889.63;;;30.57;39.28
12624;BME280;6377;42.836;23.998;2023-08-20T09:52:58;95849.50;;;30.58;38.11
12624;BME280;6377;42.836;23.998;2023-08-20T09:55:33;95923.16;;;31.36;37.69
12624;BME280;6377;42.836;23.998;2023-08-20T09:58:02;95916.00;;;31.40;38.77
12624;BME280;6377;42.836;23.998;2023-08-20T10:00:30;95901.53;;;31.26;38.40
12624;BME280;6377;42.836;23.998;2023-08-20T10:02:59;95917.63;;;31.41;37.99
12624;BME280;6377;42.836;23.998;2023-08-20T10:05:27;95926.28;;;31.02;38.12
12624;BME280;6377;42.836;23.998;2023-08-20T10:07:55;95922.84;;;31.24;37.93
12624;BME280;6377;42.836;23.998;2023-08-20T10:10:23;95928.03;;;31.12;38.22
12624;BME280;6377;42.836;23.998;2023-08-20T10:12:51;95922.09;;;31.50;37.36
12624;BME280;6377;42.836;23.998;2023-08-20T10:15:19;95922.34;;;32.03;35.58
12624;BME280;6377;42.836;23.998;2023-08-20T10:17:49;95926.09;;;32.43;35.03
12624;BME280;6377;42.836;23.998;2023-08-20T10:20:18;95915.25;;;32.83;33.81
12624;BME280;6377;42.836;23.998;2023-08-20T10:22:46;95916.56;;;33.07;34.63
12624;BME280;6377;42.836;23.998;2023-08-20T10:25:23;95911.94;;;32.94;34.42
12624;BME280;6377;42.836;23.998;2023-08-20T10:27:51;95908.69;;;33.14;33.63
12624;BME280;6377;42.836;23.998;2023-08-20T10:30:19;95867.44;;;33.19;33.70
12624;BME280;6377;42.836;23.998;2023-08-20T10:32:49;95916.81;;;33.67;33.82
12624;BME280;6377;42.836;23.998;2023-08-20T10:35:25;95910.25;;;34.03;33.49
12624;BME280;6377;42.836;23.998;2023-08-20T10:38:03;95910.44;;;34.06;31.59
12624;BME280;6377;42.836;23.998;2023-08-20T10:40:52;95913.63;;;33.91;32.87
12624;BME280;6377;42.836;23.998;2023-08-20T10:43:30;95896.69;;;34.06;31.97
12624;BME280;6377;42.836;23.998;2023-08-20T10:46:08;95899.81;;;34.39;32.44
12624;BME280;6377;42.836;23.998;2023-08-20T10:48:40;95896.75;;;34.58;32.63
12624;BME280;6377;42.836;23.998;2023-08-20T10:51:14;95905.66;;;34.38;31.96
12624;BME280;6377;42.836;23.998;2023-08-20T10:53:43;95881.97;;;33.68;31.52
12624;BME280;6377;42.836;23.998;2023-08-20T10:56:12;95896.91;;;34.35;31.22
12624;BME280;6377;42.836;23.998;2023-08-20T10:58:44;95891.91;;;34.38;31.18
12624;BME280;6377;42.836;23.998;2023-08-20T11:01:29;95889.16;;;34.63;31.54
12624;BME280;6377;42.836;23.998;2023-08-20T11:03:56;95886.16;;;34.94;30.98
12624;BME280;6377;42.836;23.998;2023-08-20T11:06:30;95886.75;;;35.25;30.35
12624;BME280;6377;42.836;23.998;2023-08-20T11:08:58;95892.88;;;35.69;29.94
12624;BME280;6377;42.836;23.998;2023-08-20T11:11:26;95880.34;;;35.80;28.95
12624;BME280;6377;42.836;23.998;2023-08-20T11:13:53;95872.44;;;35.99;29.70
12624;BME280;6377;42.836;23.998;2023-08-20T11:16:20;95875.84;;;36.25;28.79
12624;BME280;6377;42.836;23.998;2023-08-20T11:18:47;95877.25;;;36.43;28.84
12624;BME280;6377;42.836;23.998;2023-08-20T11:21:14;95866.91;;;36.61;28.09
12624;BME280;6377;42.836;23.998;2023-08-20T11:23:43;95861.50;;;36.32;28.78
12624;BME280;6377;42.836;23.998;2023-08-20T11:26:10;95836.41;;;35.33;29.36
12624;BME280;6377;42.836;23.998;2023-08-20T11:28:37;95851.25;;;35.91;29.06
12624;BME280;6377;42.836;23.998;2023-08-20T11:31:05;95861.09;;;36.01;28.78
12624;BME280;6377;42.836;23.998;2023-08-20T11:33:32;95866.19;;;36.52;28.82
12624;BME280;6377;42.836;23.998;2023-08-20T11:36:02;95857.88;;;36.61;28.26
12624;BME280;6377;42.836;23.998;2023-08-20T11:38:29;95856.19;;;36.80;27.79
12624;BME280;6377;42.836;23.998;2023-08-20T11:40:59;95848.09;;;36.96;27.29
12624;BME280;6377;42.836;23.998;2023-08-20T11:43:27;95816.34;;;36.78;27.53
12624;BME280;6377;42.836;23.998;2023-08-20T11:45:54;95849.06;;;37.36;27.36
12624;BME280;6377;42.836;23.998;2023-08-20T11:48:22;95850.44;;;37.42;26.49
12624;BME280;6377;42.836;23.998;2023-08-20T11:50:50;95851.94;;;37.64;26.51
12624;BME280;6377;42.836;23.998;2023-08-20T11:53:21;95824.56;;;37.71;25.82
12624;BME280;6377;42.836;23.998;2023-08-20T11:55:48;95835.84;;;37.66;25.78
12624;BME280;6377;42.836;23.998;2023-08-20T11:58:18;95834.91;;;37.74;26.15
12624;BME280;6377;42.836;23.998;2023-08-20T12:00:49;95837.66;;;37.38;25.89
12624;BME280;6377;42.836;23.998;2023-08-20T12:03:19;95826.41;;;37.67;26.12
12624;BME280;6377;42.836;23.998;2023-08-20T12:05:47;95833.03;;;38.02;25.24
12624;BME280;6377;42.836;23.998;2023-08-20T12:08:15;95827.19;;;38.04;24.88
12624;BME280;6377;42.836;23.998;2023-08-20T12:10:43;95830.44;;;38.34;24.50
12624;BME280;6377;42.836;23.998;2023-08-20T12:13:11;95820.75;;;38.40;24.56
12624;BME280;6377;42.836;23.998;2023-08-20T12:15:39;95820.50;;;38.60;24.76
12624;BME280;6377;42.836;23.998;2023-08-20T12:18:06;95818.75;;;38.68;24.92
12624;BME280;6377;42.836;23.998;2023-08-20T12:20:35;95825.31;;;38.48;24.84
12624;BME280;6377;42.836;23.998;2023-08-20T12:23:06;95810.03;;;38.38;25.27
12624;BME280;6377;42.836;23.998;2023-08-20T12:25:35;95815.63;;;38.54;25.32
12624;BME280;6377;42.836;23.998;2023-08-20T12:28:03;95801.88;;;38.30;24.47
12624;BME280;6377;42.836;23.998;2023-08-20T12:30:31;95808.22;;;38.74;24.53
12624;BME280;6377;42.836;23.998;2023-08-20T12:33:01;95800.69;;;39.02;23.83
12624;BME280;6377;42.836;23.998;2023-08-20T12:35:29;95804.75;;;38.77;24.63
12624;BME280;6377;42.836;23.998;2023-08-20T12:37:57;95800.16;;;38.81;24.66
12624;BME280;6377;42.836;23.998;2023-08-20T12:40:25;95802.88;;;38.65;24.81
12624;BME280;6377;42.836;23.998;2023-08-20T12:42:52;95789.38;;;38.48;24.88
12624;BME280;6377;42.836;23.998;2023-08-20T12:45:19;95803.56;;;38.90;25.07
12624;BME280;6377;42.836;23.998;2023-08-20T12:47:46;95795.41;;;38.81;24.28
12624;BME280;6377;42.836;23.998;2023-08-20T12:50:15;95797.94;;;38.58;24.37
12624;BME280;6377;42.836;23.998;2023-08-20T12:52:42;95700.28;;;37.95;24.67
12624;BME280;6377;42.836;23.998;2023-08-20T12:55:10;95794.31;;;38.14;24.94
12624;BME280;6377;42.836;23.998;2023-08-20T12:57:52;95792.59;;;38.22;25.19
12624;BME280;6377;42.836;23.998;2023-08-20T13:00:19;95784.75;;;38.24;25.28
12624;BME280;6377;42.836;23.998;2023-08-20T13:02:47;95695.94;;;37.42;25.55
12624;BME280;6377;42.836;23.998;2023-08-20T13:05:16;95794.28;;;37.87;25.79
12624;BME280;6377;42.836;23.998;2023-08-20T13:07:44;95777.25;;;37.85;26.26